createdAt,value
2022-09-30T00:01:10.597Z,98000.16
2022-09-30T00:03:37.190Z,97996.66
2022-09-30T00:06:08.759Z,97999.25
2022-09-30T00:08:37.168Z,98002.78
2022-09-30T00:11:11.209Z,98001.00
2022-09-30T00:13:40.124Z,98008.91
2022-09-30T00:16:09.055Z,98009.78
2022-09-30T00:18:36.753Z,98015.03
2022-09-30T00:21:04.312Z,98006.25
2022-09-30T00:23:34.443Z,98013.25
2022-09-30T00:26:04.293Z,98022.13
2022-09-30T00:28:31.109Z,98022.16
2022-09-30T00:31:05.379Z,98030.94
2022-09-30T00:33:32.234Z,98021.25
2022-09-30T00:35:59.058Z,98032.66
2022-09-30T00:38:27.766Z,98030.91
2022-09-30T00:40:56.304Z,98023.91
2022-09-30T00:43:43.979Z,98028.28
2022-09-30T00:46:21.156Z,98017.75
2022-09-30T00:48:53.900Z,98022.16
2022-09-30T00:51:30.609Z,98005.47
2022-09-30T00:54:01.951Z,98026.56
2022-09-30T00:56:39.478Z,98018.72
2022-09-30T00:59:19.793Z,98021.41
2022-09-30T01:01:46.425Z,98026.69
2022-09-30T01:04:16.043Z,98020.53
2022-09-30T01:06:43.318Z,98021.38
2022-09-30T01:09:11.584Z,98018.72
2022-09-30T01:11:38.346Z,98024.84
2022-09-30T01:14:14.520Z,98026.59
2022-09-30T01:17:02.844Z,98027.50
2022-09-30T01:20:05.844Z,98027.47
2022-09-30T01:22:51.685Z,98027.44
2022-09-30T01:25:21.027Z,98027.44
2022-09-30T01:28:12.142Z,98018.63
2022-09-30T01:31:00.511Z,98021.25
2022-09-30T01:33:52.909Z,98020.41
2022-09-30T01:36:37.844Z,98023.03
2022-09-30T01:39:23.164Z,98025.66
2022-09-30T01:42:01.745Z,98022.16
2022-09-30T01:45:04.260Z,98030.94
2022-09-30T01:47:33.209Z,98026.53
2022-09-30T01:50:18.205Z,98025.66
2022-09-30T01:53:09.593Z,98028.31
2022-09-30T01:55:42.917Z,98029.25
2022-09-30T01:58:16.121Z,98033.59
2022-09-30T02:00:49.233Z,98039.75
2022-09-30T02:03:22.354Z,98031.88
2022-09-30T02:06:11.835Z,98031.03
2022-09-30T02:08:44.253Z,98034.53
2022-09-30T02:11:25.915Z,98031.91
2022-09-30T02:14:06.031Z,98029.28
2022-09-30T02:16:39.938Z,98026.63
2022-09-30T02:19:11.318Z,98026.63
2022-09-30T02:21:42.434Z,98032.75
2022-09-30T02:24:14.743Z,98027.47
2022-09-30T02:26:44.224Z,98034.53
2022-09-30T02:29:19.559Z,98031.03
2022-09-30T02:31:55.891Z,98034.56
2022-09-30T02:34:33.890Z,98032.84
2022-09-30T02:37:40.526Z,98039.88
2022-09-30T02:40:07.379Z,98036.38
2022-09-30T02:42:34.431Z,98036.31
2022-09-30T02:45:08.648Z,98039.84
2022-09-30T02:48:07.673Z,98042.50
2022-09-30T02:51:00.610Z,98050.38
2022-09-30T02:53:27.049Z,98051.28
2022-09-30T02:56:23.531Z,98040.72
2022-09-30T02:58:52.835Z,98044.22
2022-09-30T03:01:20.074Z,98046.88
2022-09-30T03:03:48.862Z,98041.63
2022-09-30T03:06:15.701Z,98052.19
2022-09-30T03:08:43.699Z,98051.31
2022-09-30T03:11:25.098Z,98054.84
2022-09-30T03:14:24.206Z,98055.69
2022-09-30T03:17:25.884Z,98060.03
2022-09-30T03:20:05.894Z,98062.69
2022-09-30T03:23:15.143Z,98062.72
2022-09-30T03:25:57.139Z,98063.56
2022-09-30T03:28:36.294Z,98060.97
2022-09-30T03:31:14.245Z,98066.25
2022-09-30T03:34:07.206Z,98075.06
2022-09-30T03:37:04.317Z,98075.06
2022-09-30T03:39:49.262Z,98088.19
2022-09-30T03:42:27.098Z,98085.56
2022-09-30T03:45:03.997Z,98079.41
2022-09-30T03:47:34.013Z,98089.94
2022-09-30T03:50:07.141Z,98098.75
2022-09-30T03:52:34.867Z,98100.50
2022-09-30T03:55:04.423Z,98093.47
2022-09-30T03:57:31.004Z,98092.59
2022-09-30T03:59:58.133Z,98096.13
2022-09-30T04:02:25.510Z,98102.28
2022-09-30T04:04:52.093Z,98104.91
2022-09-30T04:07:18.949Z,98104.06
2022-09-30T04:09:45.514Z,98100.53
2022-09-30T04:12:12.046Z,98104.03
2022-09-30T04:14:38.510Z,98094.34
2022-09-30T04:17:05.773Z,98089.09
2022-09-30T04:19:32.313Z,98089.94
2022-09-30T04:21:58.980Z,98090.81
2022-09-30T04:24:25.525Z,98094.34
2022-09-30T04:26:52.067Z,98103.97
2022-09-30T04:29:18.620Z,98111.88
2022-09-30T04:31:45.296Z,98115.41
2022-09-30T04:34:11.919Z,98115.41
2022-09-30T04:36:38.706Z,98122.47
2022-09-30T04:39:05.628Z,98125.97
2022-09-30T04:41:34.037Z,98126.88
2022-09-30T04:44:05.994Z,98126.88
2022-09-30T04:46:36.599Z,98137.38
2022-09-30T04:49:09.107Z,98135.63
2022-09-30T04:51:36.465Z,98132.13
2022-09-30T04:54:03.565Z,98140.00
2022-09-30T04:56:30.195Z,98130.34
2022-09-30T04:58:57.392Z,98140.03
2022-09-30T05:01:23.993Z,98140.88
2022-09-30T05:03:50.772Z,98146.16
2022-09-30T05:06:17.794Z,98141.75
2022-09-30T05:08:46.113Z,98157.56
2022-09-30T05:11:18.860Z,98154.03
2022-09-30T05:13:46.129Z,98154.03
2022-09-30T05:16:13.533Z,98161.06
2022-09-30T05:18:42.682Z,98171.59
2022-09-30T05:21:10.133Z,98179.47
2022-09-30T05:23:36.897Z,98173.34
2022-09-30T05:26:03.564Z,98174.22
2022-09-30T05:28:31.383Z,98178.59
2022-09-30T05:31:00.043Z,98183.84
2022-09-30T05:33:29.411Z,98185.63
2022-09-30T05:36:00.009Z,98181.22
2022-09-30T05:38:26.683Z,98186.53
2022-09-30T05:40:54.393Z,98188.25
2022-09-30T05:43:20.952Z,98190.00
2022-09-30T05:45:55.328Z,98198.78
2022-09-30T05:48:23.379Z,98206.69
2022-09-30T05:50:54.678Z,98200.53
2022-09-30T05:53:21.150Z,98211.97
2022-09-30T05:55:48.685Z,98206.69
2022-09-30T05:58:16.570Z,98213.72
2022-09-30T06:00:45.131Z,98217.22
2022-09-30T06:03:11.837Z,98229.50
2022-09-30T06:05:38.344Z,98223.38
2022-09-30T06:08:07.133Z,98227.78
2022-09-30T06:10:34.812Z,98220.75
2022-09-30T06:13:04.727Z,98216.34
2022-09-30T06:15:31.568Z,98221.59
2022-09-30T06:17:58.368Z,98226.84
2022-09-30T06:20:25.178Z,98227.72
2022-09-30T06:22:51.652Z,98228.59
2022-09-30T06:25:18.287Z,98224.22
2022-09-30T06:27:49.978Z,98224.19
2022-09-30T06:30:16.866Z,98224.19
2022-09-30T06:32:43.956Z,98226.81
2022-09-30T06:35:10.903Z,98234.72
2022-09-30T06:37:38.648Z,98237.38
2022-09-30T06:40:06.424Z,98238.25
2022-09-30T06:42:33.877Z,98237.38
2022-09-30T06:45:00.341Z,98241.75
2022-09-30T06:47:26.930Z,98251.41
2022-09-30T06:49:58.425Z,98258.41
2022-09-30T06:52:26.347Z,98247.00
2022-09-30T06:54:56.544Z,98253.97
2022-09-30T06:57:25.100Z,98248.69
2022-09-30T06:59:52.139Z,98251.28
2022-09-30T07:02:18.833Z,98252.16
2022-09-30T07:04:45.360Z,98248.63
2022-09-30T07:07:12.195Z,98245.09
2022-09-30T07:09:38.816Z,98248.56
2022-09-30T07:12:07.354Z,98250.28
2022-09-30T07:14:33.865Z,98253.78
2022-09-30T07:17:04.107Z,98260.78
2022-09-30T07:19:31.418Z,98262.53
2022-09-30T07:22:18.202Z,98265.13
2022-09-30T07:24:44.613Z,98273.03
2022-09-30T07:27:13.685Z,98270.31
2022-09-30T07:30:07.169Z,98263.25
2022-09-30T07:32:27.965Z,98264.09
2022-09-30T07:34:54.490Z,98266.72
2022-09-30T07:37:21.654Z,98274.56
2022-09-30T07:39:48.566Z,98275.34
2022-09-30T07:42:22.640Z,98259.44
2022-09-30T07:44:52.979Z,98266.44
2022-09-30T07:47:20.480Z,98273.38
2022-09-30T07:49:47.363Z,98275.97
2022-09-30T07:52:14.325Z,98278.59
2022-09-30T07:54:46.628Z,98282.94
2022-09-30T07:57:16.367Z,98272.22
2022-09-30T07:59:43.041Z,98287.19
2022-09-30T08:02:15.674Z,98280.97
2022-09-30T08:04:44.173Z,98281.72
2022-09-30T08:07:11.787Z,98284.28
2022-09-30T08:09:38.545Z,98279.75
2022-09-30T08:12:05.433Z,98287.63
2022-09-30T08:14:32.126Z,98293.53
2022-09-30T08:17:00.253Z,98292.34
2022-09-30T08:19:28.850Z,98293.13
2022-09-30T08:21:55.610Z,98293.84
2022-09-30T08:24:23.957Z,98299.91
2022-09-30T08:26:51.240Z,98295.38
2022-09-30T08:29:20.388Z,98300.47
2022-09-30T08:31:56.695Z,98293.13
2022-09-30T08:34:30.466Z,98291.97
2022-09-30T08:36:59.669Z,98294.31
2022-09-30T08:39:26.419Z,98304.84
2022-09-30T08:42:25.468Z,98306.22
2022-09-30T08:45:23.258Z,98310.97
2022-09-30T08:48:14.583Z,98307.31
2022-09-30T08:51:02.050Z,98310.75
2022-09-30T08:53:49.292Z,98307.25
2022-09-30T08:56:28.154Z,98316.94
2022-09-30T08:58:59.447Z,98313.41
2022-09-30T09:01:33.951Z,98317.25
2022-09-30T09:04:02.514Z,98320.53
2022-09-30T09:06:28.953Z,98316.88
2022-09-30T09:09:07.397Z,98315.72
2022-09-30T09:12:08.405Z,98318.84
2022-09-30T09:14:44.072Z,98311.78
2022-09-30T09:17:28.913Z,98314.44
2022-09-30T09:20:17.388Z,98321.78
2022-09-30T09:22:48.680Z,98326.19
2022-09-30T09:25:18.079Z,98324.09
2022-09-30T09:28:00.596Z,98324.56
2022-09-30T09:30:36.223Z,98320.34
2022-09-30T09:33:18.659Z,98319.47
2022-09-30T09:35:54.234Z,98325.00
2022-09-30T09:38:50.173Z,98313.56
2022-09-30T09:41:41.225Z,98318.13
2022-09-30T09:44:32.248Z,98319.00
2022-09-30T09:47:15.170Z,98304.81
2022-09-30T09:49:44.659Z,98299.53
2022-09-30T09:52:12.191Z,98296.88
2022-09-30T09:54:48.214Z,98303.84
2022-09-30T09:57:27.746Z,98297.03
2022-09-30T10:00:22.592Z,98299.34
2022-09-30T10:03:06.503Z,98299.59
2022-09-30T10:05:39.633Z,98289.31
2022-09-30T10:08:17.338Z,98288.28
2022-09-30T10:10:48.225Z,98280.03
2022-09-30T10:13:24.530Z,98284.94
2022-09-30T10:15:54.965Z,98281.47
2022-09-30T10:18:37.493Z,98285.38
2022-09-30T10:21:23.002Z,98288.28
2022-09-30T10:23:49.650Z,98292.25
2022-09-30T10:26:22.480Z,98300.94
2022-09-30T10:28:52.862Z,98302.00
2022-09-30T10:31:30.139Z,98307.66
2022-09-30T10:34:21.753Z,98306.03
2022-09-30T10:36:48.959Z,98307.03
2022-09-30T10:39:35.786Z,98312.28
2022-09-30T10:42:16.570Z,98310.41
2022-09-30T10:44:46.673Z,98298.97
2022-09-30T10:47:22.712Z,98306.97
2022-09-30T10:49:51.507Z,98309.66
2022-09-30T10:52:40.461Z,98302.56
2022-09-30T10:55:25.321Z,98305.97
2022-09-30T10:57:54.677Z,98299.75
2022-09-30T11:00:23.790Z,98304.16
2022-09-30T11:03:14.677Z,98300.72
2022-09-30T11:05:44.098Z,98294.44
2022-09-30T11:08:21.026Z,98288.63
2022-09-30T11:11:10.335Z,98300.50
2022-09-30T11:13:48.487Z,98303.50
2022-09-30T11:16:27.270Z,98291.97
2022-09-30T11:19:26.996Z,98298.72
2022-09-30T11:21:59.360Z,98295.78
2022-09-30T11:24:38.757Z,98291.53
2022-09-30T11:27:14.271Z,98295.56
2022-09-30T11:30:19.828Z,98291.13
2022-09-30T11:33:11.105Z,98295.19
2022-09-30T11:35:43.620Z,98289.47
2022-09-30T11:38:47.786Z,98290.84
2022-09-30T11:41:35.836Z,98288.53
2022-09-30T11:44:08.318Z,98296.09
2022-09-30T11:46:40.478Z,98298.31
2022-09-30T11:49:21.172Z,98292.25
2022-09-30T11:52:14.078Z,98300.97
2022-09-30T11:54:47.322Z,98297.28
2022-09-30T11:57:51.890Z,98303.56
2022-09-30T12:00:19.973Z,98299.31
2022-09-30T12:03:08.014Z,98300.84
2022-09-30T12:05:43.808Z,98304.31
2022-09-30T12:08:42.302Z,98311.53
2022-09-30T12:11:13.717Z,98315.41
2022-09-30T12:13:57.292Z,98321.47
2022-09-30T12:16:31.945Z,98317.66
2022-09-30T12:19:16.215Z,98318.47
2022-09-30T12:22:05.501Z,98321.16
2022-09-30T12:24:44.886Z,98325.06
2022-09-30T12:27:14.381Z,98308.50
2022-09-30T12:30:13.258Z,98318.31
2022-09-30T12:32:42.825Z,98320.06
2022-09-30T12:35:30.969Z,98312.88
2022-09-30T12:38:03.513Z,98314.22
2022-09-30T12:40:52.347Z,98312.41
2022-09-30T12:43:37.506Z,98311.50
2022-09-30T12:46:29.146Z,98312.56
2022-09-30T12:49:01.522Z,98304.41
2022-09-30T12:51:34.175Z,98306.00
2022-09-30T12:54:24.519Z,98310.00
2022-09-30T12:56:59.273Z,98306.28
2022-09-30T12:59:30.088Z,98302.56
2022-09-30T13:01:58.902Z,98306.00
2022-09-30T13:04:33.148Z,98303.28
2022-09-30T13:06:59.584Z,98301.53
2022-09-30T13:09:34.947Z,98304.19
2022-09-30T13:12:01.449Z,98296.97
2022-09-30T13:14:35.990Z,98304.91
2022-09-30T13:17:08.792Z,98301.59
2022-09-30T13:19:51.293Z,98297.78
2022-09-30T13:22:20.809Z,98294.88
2022-09-30T13:25:05.380Z,98302.25
2022-09-30T13:27:44.642Z,98298.03
2022-09-30T13:30:14.674Z,98299.69
2022-09-30T13:32:43.368Z,98291.69
2022-09-30T13:35:34.695Z,98286.47
2022-09-30T13:38:16.795Z,98297.47
2022-09-30T13:41:01.354Z,98300.78
2022-09-30T13:43:34.069Z,98296.25
2022-09-30T13:46:30.686Z,98292.41
2022-09-30T13:49:05.176Z,98290.56
2022-09-30T13:51:33.265Z,98298.66
2022-09-30T13:54:06.917Z,98291.75
2022-09-30T13:56:36.673Z,98284.81
2022-09-30T13:59:13.407Z,98285.75
2022-09-30T14:01:57.892Z,98284.91
2022-09-30T14:04:36.266Z,98277.03
2022-09-30T14:07:19.012Z,98280.56
2022-09-30T14:09:55.653Z,98280.66
2022-09-30T14:12:46.710Z,98283.25
2022-09-30T14:15:42.534Z,98274.44
2022-09-30T14:18:48.668Z,98280.81
2022-09-30T14:21:35.558Z,98281.75
2022-09-30T14:24:21.684Z,98289.09
2022-09-30T14:27:06.782Z,98293.53
2022-09-30T14:29:43.401Z,98281.84
2022-09-30T14:32:31.506Z,98288.06
2022-09-30T14:35:00.564Z,98285.34
2022-09-30T14:37:33.261Z,98280.13
2022-09-30T14:40:00.046Z,98289.03
2022-09-30T14:42:34.921Z,98289.03
2022-09-30T14:45:05.742Z,98283.75
2022-09-30T14:47:40.506Z,98282.00
2022-09-30T14:50:18.325Z,98287.63
2022-09-30T14:52:47.353Z,98294.00
2022-09-30T14:55:25.269Z,98297.63
2022-09-30T14:57:57.984Z,98296.66
2022-09-30T15:00:30.994Z,98293.16
2022-09-30T15:02:59.492Z,98295.88
2022-09-30T15:05:26.792Z,98296.59
2022-09-30T15:07:53.757Z,98291.16
2022-09-30T15:10:23.326Z,98292.13
2022-09-30T15:12:51.803Z,98302.94
2022-09-30T15:15:35.161Z,98298.53
2022-09-30T15:18:43.022Z,98301.28
2022-09-30T15:21:14.565Z,98289.88
2022-09-30T15:23:44.784Z,98281.88
2022-09-30T15:26:13.281Z,98277.50
2022-09-30T15:28:40.541Z,98280.13
2022-09-30T15:31:18.409Z,98285.53
2022-09-30T15:33:45.724Z,98284.78
2022-09-30T15:36:17.215Z,98284.91
2022-09-30T15:38:51.751Z,98275.28
2022-09-30T15:41:18.568Z,98291.25
2022-09-30T15:43:51.053Z,98283.38
2022-09-30T15:46:29.515Z,98281.66
2022-09-30T15:48:58.911Z,98288.84
2022-09-30T15:51:34.744Z,98287.22
2022-09-30T15:54:16.347Z,98295.25
2022-09-30T15:56:43.507Z,98282.94
2022-09-30T15:59:11.809Z,98283.00
2022-09-30T16:01:42.686Z,98275.88
2022-09-30T16:04:24.409Z,98275.13
2022-09-30T16:06:55.034Z,98280.63
2022-09-30T16:09:33.675Z,98278.00
2022-09-30T16:12:14.970Z,98274.59
2022-09-30T16:14:49.332Z,98284.44
2022-09-30T16:17:32.393Z,98280.19
2022-09-30T16:20:10.979Z,98275.00
2022-09-30T16:22:40.545Z,98270.72
2022-09-30T16:25:27.876Z,98275.28
2022-09-30T16:28:00.905Z,98269.13
2022-09-30T16:30:28.835Z,98273.69
2022-09-30T16:33:00.639Z,98268.53
2022-09-30T16:35:28.470Z,98259.84
2022-09-30T16:38:01.259Z,98269.78
2022-09-30T16:40:28.914Z,98261.22
2022-09-30T16:42:55.910Z,98259.81
2022-09-30T16:45:22.967Z,98259.97
2022-09-30T16:47:50.486Z,98253.75
2022-09-30T16:50:30.372Z,98254.81
2022-09-30T16:52:56.919Z,98257.72
2022-09-30T16:55:25.422Z,98261.38
2022-09-30T16:57:53.123Z,98271.94
2022-09-30T17:00:19.739Z,98273.00
2022-09-30T17:02:47.705Z,98273.22
2022-09-30T17:05:18.550Z,98284.03
2022-09-30T17:07:52.882Z,98276.28
2022-09-30T17:10:23.647Z,98277.25
2022-09-30T17:12:50.645Z,98283.56
2022-09-30T17:15:18.772Z,98282.81
2022-09-30T17:17:45.804Z,98290.91
2022-09-30T17:20:12.599Z,98298.91
2022-09-30T17:22:39.357Z,98295.41
2022-09-30T17:25:06.585Z,98290.19
2022-09-30T17:27:33.427Z,98289.41
2022-09-30T17:30:01.230Z,98297.44
2022-09-30T17:32:27.790Z,98289.56
2022-09-30T17:34:54.240Z,98287.94
2022-09-30T17:37:21.114Z,98291.50
2022-09-30T17:39:47.619Z,98288.03
2022-09-30T17:42:34.205Z,98288.97
2022-09-30T17:45:00.662Z,98280.22
2022-09-30T17:47:27.160Z,98281.97
2022-09-30T17:49:54.105Z,98285.53
2022-09-30T17:52:21.249Z,98281.22
2022-09-30T17:54:52.304Z,98287.41
2022-09-30T17:57:20.329Z,98284.03
2022-09-30T17:59:46.839Z,98284.97
2022-09-30T18:02:15.975Z,98289.41
2022-09-30T18:04:42.488Z,98285.91
2022-09-30T18:07:10.164Z,98283.25
2022-09-30T18:09:37.920Z,98279.78
2022-09-30T18:12:05.098Z,98286.91
2022-09-30T18:14:38.120Z,98295.75
2022-09-30T18:17:05.769Z,98295.81
2022-09-30T18:19:32.994Z,98299.34
2022-09-30T18:21:59.430Z,98302.88
2022-09-30T18:24:44.852Z,98299.44
2022-09-30T18:27:15.101Z,98295.88
2022-09-30T18:29:41.784Z,98300.31
2022-09-30T18:32:08.856Z,98292.34
2022-09-30T18:34:35.412Z,98298.47
2022-09-30T18:37:04.093Z,98306.31
2022-09-30T18:39:31.261Z,98286.94
2022-09-30T18:41:57.762Z,98296.50
2022-09-30T18:44:25.625Z,98290.34
2022-09-30T18:46:55.441Z,98295.53
2022-09-30T18:49:24.836Z,98300.84
2022-09-30T18:51:51.301Z,98299.09
2022-09-30T18:54:18.076Z,98299.09
2022-09-30T18:56:44.715Z,98301.78
2022-09-30T18:59:18.169Z,98296.47
2022-09-30T19:01:47.849Z,98293.84
2022-09-30T19:04:14.587Z,98284.22
2022-09-30T19:06:43.597Z,98277.16
2022-09-30T19:09:10.332Z,98277.03
2022-09-30T19:11:37.107Z,98276.91
2022-09-30T19:14:05.624Z,98273.09
2022-09-30T19:16:37.914Z,98266.81
2022-09-30T19:19:06.369Z,98275.53
2022-09-30T19:21:36.860Z,98272.88
2022-09-30T19:24:07.954Z,98273.03
2022-09-30T19:26:37.080Z,98278.31
2022-09-30T19:29:05.433Z,98279.16
2022-09-30T19:31:34.108Z,98279.06
2022-09-30T19:34:01.938Z,98276.41
2022-09-30T19:36:32.701Z,98272.84
2022-09-30T19:39:11.247Z,98267.56
2022-09-30T19:41:38.864Z,98269.31
2022-09-30T19:44:05.366Z,98264.13
2022-09-30T19:46:31.859Z,98253.69
2022-09-30T19:48:58.374Z,98258.06
2022-09-30T19:51:26.382Z,98256.34
2022-09-30T19:54:05.055Z,98258.13
2022-09-30T19:56:33.779Z,98257.97
2022-09-30T19:59:04.002Z,98256.16
2022-09-30T20:01:31.248Z,98256.22
2022-09-30T20:04:04.677Z,98252.66
2022-09-30T20:06:32.652Z,98250.72
2022-09-30T20:09:00.999Z,98242.69
2022-09-30T20:11:33.346Z,98233.75
2022-09-30T20:14:19.521Z,98246.19
2022-09-30T20:16:48.343Z,98249.69
2022-09-30T20:19:16.218Z,98245.25
2022-09-30T20:21:42.914Z,98246.13
2022-09-30T20:24:11.384Z,98242.72
2022-09-30T20:26:39.037Z,98246.25
2022-09-30T20:29:08.731Z,98245.16
2022-09-30T20:31:37.121Z,98247.72
2022-09-30T20:34:04.202Z,98248.56
2022-09-30T20:36:31.974Z,98242.38
2022-09-30T20:39:00.583Z,98246.75
2022-09-30T20:41:27.628Z,98256.44
2022-09-30T20:43:54.188Z,98250.22
2022-09-30T20:46:22.494Z,98251.13
2022-09-30T20:48:49.899Z,98256.47
2022-09-30T20:51:20.563Z,98261.69
2022-09-30T20:53:51.973Z,98261.63
2022-09-30T20:56:21.463Z,98260.56
2022-09-30T20:58:49.462Z,98257.94
2022-09-30T21:01:18.412Z,98256.25
2022-09-30T21:03:52.494Z,98266.00
2022-09-30T21:06:21.298Z,98262.50
2022-09-30T21:08:48.879Z,98253.66
2022-09-30T21:11:15.471Z,98250.13
2022-09-30T21:13:43.172Z,98260.72
2022-09-30T21:16:12.273Z,98255.44
2022-09-30T21:18:38.864Z,98247.47
2022-09-30T21:21:05.788Z,98250.91
2022-09-30T21:23:37.562Z,98249.09
2022-09-30T21:26:06.816Z,98240.25
2022-09-30T21:28:33.885Z,98252.69
2022-09-30T21:31:05.358Z,98245.56
2022-09-30T21:33:31.856Z,98238.41
2022-09-30T21:36:00.186Z,98231.19
2022-09-30T21:38:26.808Z,98227.69
2022-09-30T21:41:01.382Z,98231.41
2022-09-30T21:43:31.893Z,98226.94
2022-09-30T21:46:00.366Z,98224.31
2022-09-30T21:48:27.771Z,98234.81
2022-09-30T21:50:55.314Z,98211.88
2022-09-30T21:53:27.302Z,98218.00
2022-09-30T21:55:54.525Z,98216.19
2022-09-30T21:58:23.853Z,98206.47
2022-09-30T22:00:50.698Z,98197.63
2022-09-30T22:03:17.610Z,98200.31
2022-09-30T22:05:51.000Z,98187.91
2022-09-30T22:08:17.716Z,98207.41
2022-09-30T22:10:44.468Z,98202.06
2022-09-30T22:13:11.902Z,98195.03
2022-09-30T22:15:38.831Z,98189.69
2022-09-30T22:18:08.246Z,98188.78
2022-09-30T22:20:38.083Z,98184.22
2022-09-30T22:23:04.599Z,98186.94
2022-09-30T22:25:32.602Z,98185.31
2022-09-30T22:27:59.466Z,98189.81
2022-09-30T22:30:28.845Z,98189.81
2022-09-30T22:33:13.654Z,98183.56
2022-09-30T22:35:58.843Z,98185.31
2022-09-30T22:38:25.753Z,98180.91
2022-09-30T22:40:55.774Z,98179.06
2022-09-30T22:43:26.535Z,98171.88
2022-09-30T22:46:04.595Z,98172.75
2022-09-30T22:48:31.874Z,98162.25
2022-09-30T22:50:59.156Z,98159.66
2022-09-30T22:53:26.916Z,98156.09
2022-09-30T22:55:53.912Z,98156.84
2022-09-30T22:58:21.213Z,98153.31
2022-09-30T23:00:58.832Z,98144.47
2022-09-30T23:03:25.898Z,98146.34
2022-09-30T23:05:59.042Z,98142.81
2022-09-30T23:08:34.276Z,98141.16
2022-09-30T23:11:00.905Z,98141.28
2022-09-30T23:13:30.663Z,98135.09
2022-09-30T23:15:58.435Z,98126.19
2022-09-30T23:18:26.370Z,98130.59
2022-09-30T23:21:01.347Z,98128.00
2022-09-30T23:23:31.795Z,98125.38
2022-09-30T23:26:06.152Z,98124.50
2022-09-30T23:28:32.713Z,98118.25
2022-09-30T23:31:06.450Z,98122.63
2022-09-30T23:33:33.104Z,98124.38
2022-09-30T23:36:02.368Z,98126.16
2022-09-30T23:38:29.579Z,98126.19
2022-09-30T23:40:59.177Z,98128.03
2022-09-30T23:43:34.085Z,98127.16
2022-09-30T23:46:01.603Z,98121.84
2022-09-30T23:48:28.471Z,98118.34
2022-09-30T23:50:55.033Z,98118.38
2022-09-30T23:53:25.445Z,98119.22
2022-09-30T23:56:02.133Z,98123.72
2022-09-30T23:58:29.445Z,98107.91
